Time;durP1;ratioP1;P1;durP2;ratioP2;P2;SDS_P1;SDS_P2;PMS_P1;PMS_P2;Temp;Humidity;BMP_temperature;BMP_pressure;BME280_temperature;BME280_humidity;BME280_pressure;Samples;Min_cycle;Max_cycle;Signal;HPM_P1;HPM_P2
2022/06/18 00:00:21;;;;;;;;;16.75;16.75;;;;;28.99;34.67;101574.41;6221087;22;45355;-76
2022/06/18 00:02:47;;;;;;;;;18.25;17.00;;;;;28.92;34.91;101564.94;6248103;22;45426;-77
2022/06/18 00:05:15;;;;;;;;;16.75;16.00;;;;;28.86;34.77;101560.81;6246158;22;46610;-78
2022/06/18 00:07:50;;;;;;;;;19.25;18.00;;;;;28.83;34.91;101560.16;6246224;22;45202;-77
2022/06/18 00:10:20;;;;;;;;;18.50;17.25;;;;;28.78;34.54;101553.19;6248192;22;45213;-77
2022/06/18 00:15:37;;;;;;;;;28.75;27.50;;;;;28.71;34.88;101553.69;6248214;22;45621;-77
2022/06/18 00:18:05;;;;;;;;;21.25;21.25;;;;;28.68;35.37;101552.09;6248319;22;45331;-77
2022/06/18 00:20:34;;;;;;;;;22.50;19.50;;;;;28.67;35.21;101553.06;6248289;22;45395;-77
2022/06/18 00:23:01;;;;;;;;;18.25;16.50;;;;;28.64;35.47;101550.56;6247840;22;45457;-77
2022/06/18 00:25:39;;;;;;;;;16.50;16.50;;;;;28.62;36.04;101547.06;6247814;22;45460;-77
2022/06/18 00:28:13;;;;;;;;;19.00;18.00;;;;;28.61;35.84;101547.19;6220554;22;45320;-76
2022/06/18 00:30:39;;;;;;;;;17.50;16.50;;;;;28.57;35.46;101541.97;6248484;22;45224;-78
2022/06/18 00:33:05;;;;;;;;;20.25;16.75;;;;;28.54;36.17;101550.28;6221202;22;45193;-77
2022/06/18 00:35:30;;;;;;;;;19.25;18.25;;;;;28.52;35.76;101554.06;6220164;22;47080;-78
2022/06/18 00:37:58;;;;;;;;;14.00;14.00;;;;;28.49;36.23;101551.56;6220575;22;45271;-77
2022/06/18 00:40:39;;;;;;;;;16.75;15.25;;;;;28.46;36.19;101551.78;6248515;22;45192;-77
2022/06/18 00:43:13;;;;;;;;;17.75;16.25;;;;;28.42;36.07;101545.66;6248076;22;45345;-77
2022/06/18 00:45:39;;;;;;;;;18.75;16.25;;;;;28.40;36.32;101546.72;6220808;22;48204;-77
2022/06/18 00:48:29;;;;;;;;;18.50;18.00;;;;;28.36;35.87;101552.34;6220214;22;45291;-78
2022/06/18 00:51:03;;;;;;;;;18.50;17.25;;;;;28.31;36.52;101553.63;6248051;22;45223;-78
2022/06/18 00:53:42;;;;;;;;;18.25;16.50;;;;;28.29;36.43;101555.56;6220372;22;45352;-77
2022/06/18 00:56:15;;;;;;;;;16.50;13.25;;;;;28.27;36.60;101552.09;6245691;22;46870;-77
2022/06/18 00:58:52;;;;;;;;;14.00;12.25;;;;;28.24;36.27;101552.28;6248474;22;45231;-77
2022/06/18 01:01:29;;;;;;;;;13.50;13.25;;;;;28.22;36.09;101554.22;6220370;22;45549;-77
2022/06/18 01:03:55;;;;;;;;;17.00;15.00;;;;;28.24;36.40;101557.72;6248166;22;45574;-77
2022/06/18 01:06:32;;;;;;;;;17.25;17.25;;;;;28.22;36.59;101556.94;6220189;22;47032;-77
2022/06/18 01:09:04;;;;;;;;;17.25;16.00;;;;;28.21;36.58;101557.91;6248036;22;45270;-78
2022/06/18 01:11:33;;;;;;;;;14.25;14.25;;;;;28.18;36.42;101556.28;6248222;22;45410;-77
2022/06/18 01:14:04;;;;;;;;;16.25;15.00;;;;;28.17;36.46;101551.81;6219959;22;45225;-77
2022/06/18 01:16:31;;;;;;;;;10.00;9.50;;;;;28.15;36.78;101556.47;6246146;22;47666;-77
2022/06/18 01:18:57;;;;;;;;;15.50;14.75;;;;;28.14;36.65;101552.88;6247743;22;45201;-78
2022/06/18 01:21:45;;;;;;;;;13.00;12.50;;;;;28.14;36.72;101550.16;6247515;22;45237;-77
2022/06/18 01:24:11;;;;;;;;;13.00;13.00;;;;;28.13;36.48;101550.28;6230263;22;45568;-77
2022/06/18 01:26:36;;;;;;;;;10.75;10.75;;;;;28.11;36.79;101553.06;6247848;22;46580;-78
2022/06/18 01:29:03;;;;;;;;;14.75;14.75;;;;;28.09;36.76;101548.72;6220702;22;45222;-77
2022/06/18 01:31:28;;;;;;;;;16.00;15.00;;;;;28.07;36.82;101547.97;6221013;22;45320;-77
2022/06/18 01:33:54;;;;;;;;;14.25;13.00;;;;;28.04;37.09;101542.72;6220256;22;45389;-77
2022/06/18 01:36:19;;;;;;;;;17.00;17.00;;;;;28.01;36.87;101541.09;6245747;22;47317;-77
2022/06/18 01:38:46;;;;;;;;;13.50;13.50;;;;;27.95;36.98;101543.34;6220429;22;45587;-77
2022/06/18 01:44:12;;;;;;;;;13.00;11.25;;;;;27.87;37.01;101531.16;6247852;22;45351;-77
2022/06/18 01:46:42;;;;;;;;;13.00;12.75;;;;;27.82;37.10;101530.56;6247953;22;45350;-77
2022/06/18 01:49:13;;;;;;;;;9.25;9.25;;;;;27.82;37.12;101529.72;6248096;22;45153;-78
2022/06/18 01:51:42;;;;;;;;;13.00;11.75;;;;;27.78;37.21;101526.31;6219777;22;45393;-78
2022/06/18 01:54:15;;;;;;;;;12.75;12.75;;;;;27.76;37.32;101521.97;6219455;22;45230;-78
2022/06/18 01:56:45;;;;;;;;;12.00;12.00;;;;;27.71;37.00;101523.09;6220100;22;47223;-77
2022/06/18 01:59:23;;;;;;;;;9.25;9.25;;;;;27.69;37.32;101519.66;6220302;22;45204;-78
2022/06/18 02:01:50;;;;;;;;;11.50;11.50;;;;;27.67;37.19;101527.00;6220456;22;45455;-78
2022/06/18 02:04:18;;;;;;;;;12.50;12.25;;;;;27.62;37.28;101521.00;6248127;22;45223;-77
2022/06/18 02:06:45;;;;;;;;;11.25;10.75;;;;;27.57;37.49;101517.72;6247254;22;46601;-77
2022/06/18 02:09:28;;;;;;;;;11.00;11.00;;;;;27.56;37.39;101524.09;6220074;22;45213;-77
2022/06/18 02:11:56;;;;;;;;;11.50;11.50;;;;;27.52;37.47;101516.25;6220477;22;45122;-77
2022/06/18 02:14:25;;;;;;;;;11.00;10.25;;;;;27.49;37.53;101520.91;6247432;22;45198;-76
2022/06/18 02:16:52;;;;;;;;;12.00;10.75;;;;;27.46;37.50;101521.09;6247780;22;45353;-77
2022/06/18 02:19:18;;;;;;;;;12.00;12.00;;;;;27.43;37.99;101518.59;6220317;22;45236;-76
2022/06/18 02:21:48;;;;;;;;;13.75;13.00;;;;;27.43;37.58;101521.28;6247340;22;45184;-77
2022/06/18 02:24:16;;;;;;;;;12.50;12.00;;;;;27.40;37.84;101517.88;6247063;22;45450;-77
2022/06/18 02:26:43;;;;;;;;;14.25;12.50;;;;;27.40;37.77;101516.06;6247770;22;45915;-77
2022/06/18 02:29:20;;;;;;;;;11.50;11.25;;;;;27.39;37.68;101513.44;6247547;22;45169;-77
2022/06/18 02:31:46;;;;;;;;;8.50;8.50;;;;;27.37;37.55;101509.97;6246076;22;45194;-77
2022/06/18 02:34:16;;;;;;;;;12.50;12.50;;;;;27.35;37.69;101510.06;6247843;22;45183;-78
2022/06/18 02:36:42;;;;;;;;;14.50;13.50;;;;;27.34;38.02;101499.34;6247095;22;45424;-77
2022/06/18 02:39:07;;;;;;;;;12.00;12.00;;;;;27.31;37.93;101497.69;6220275;22;45208;-77
2022/06/18 02:41:34;;;;;;;;;15.00;13.50;;;;;27.26;37.99;101491.69;6220247;22;45254;-78
2022/06/18 02:43:59;;;;;;;;;13.75;12.50;;;;;27.22;38.24;101485.63;6247726;22;45469;-77
2022/06/18 02:46:25;;;;;;;;;12.25;12.25;;;;;27.18;38.09;101486.75;6220345;22;48016;-78
2022/06/18 02:48:52;;;;;;;;;14.00;13.25;;;;;27.15;38.27;101481.53;6221043;22;45702;-77
2022/06/18 02:51:18;;;;;;;;;15.00;14.50;;;;;27.12;38.76;101478.16;6247815;22;45240;-79
2022/06/18 02:53:43;;;;;;;;;16.00;14.50;;;;;27.09;38.59;101476.50;6247349;22;45522;-77
2022/06/18 02:56:13;;;;;;;;;13.75;11.75;;;;;27.06;38.92;101469.44;6248489;22;45532;-78
2022/06/18 02:58:43;;;;;;;;;10.25;10.25;;;;;27.07;38.95;101467.59;6246486;22;45609;-78
2022/06/18 03:01:14;;;;;;;;;14.00;12.75;;;;;27.07;38.51;101467.59;6248242;22;45350;-78
2022/06/18 03:03:43;;;;;;;;;13.00;13.00;;;;;27.09;38.68;101464.81;6247970;22;45169;-77
2022/06/18 03:06:10;;;;;;;;;17.50;15.00;;;;;27.07;39.00;101454.09;6219461;22;48112;-76
2022/06/18 03:08:37;;;;;;;;;15.00;14.00;;;;;27.05;38.95;101458.72;6247404;22;45421;-77
2022/06/18 03:13:47;;;;;;;;;11.00;11.00;;;;;27.01;39.06;101455.34;6247062;22;45252;-77
2022/06/18 03:16:16;;;;;;;;;12.50;11.25;;;;;26.98;39.26;101443.84;6247286;22;46136;-76
2022/06/18 03:18:44;;;;;;;;;10.50;10.00;;;;;26.96;39.19;101443.94;6219584;22;45213;-77
2022/06/18 03:21:38;;;;;;;;;13.75;12.25;;;;;26.94;39.16;101432.34;6246467;22;45410;-77
2022/06/18 03:24:04;;;;;;;;;17.75;15.75;;;;;26.93;39.39;101427.06;6219652;22;45378;-78
2022/06/18 03:26:30;;;;;;;;;13.00;13.00;;;;;26.91;39.82;101432.53;6219285;22;46074;-77
2022/06/18 03:28:56;;;;;;;;;15.25;14.00;;;;;26.84;39.83;101426.66;6247260;22;45308;-77
2022/06/18 03:31:22;;;;;;;;;11.25;11.25;;;;;26.82;39.77;101422.31;6247382;22;45240;-78
2022/06/18 03:33:47;;;;;;;;;17.75;15.00;;;;;26.78;39.38;101427.03;6246951;22;45127;-77
2022/06/18 03:36:17;;;;;;;;;15.25;12.75;;;;;26.75;39.62;101424.50;6246277;22;46262;-77
2022/06/18 03:38:43;;;;;;;;;14.25;14.25;;;;;26.73;39.52;101423.75;6246810;22;45378;-77
2022/06/18 03:41:09;;;;;;;;;14.00;13.25;;;;;26.70;40.10;101417.63;6247203;22;45228;-77
2022/06/18 03:43:35;;;;;;;;;12.00;12.00;;;;;26.68;39.84;101425.84;6219659;22;45921;-76
2022/06/18 03:46:07;;;;;;;;;12.75;12.25;;;;;26.66;39.94;101421.50;6247017;22;45445;-77
2022/06/18 03:48:57;;;;;;;;;15.50;15.50;;;;;26.61;40.08;101421.78;6220546;22;45275;-77
2022/06/18 03:51:23;;;;;;;;;15.00;14.75;;;;;26.59;39.84;101421.00;6247900;22;45364;-77
2022/06/18 03:53:48;;;;;;;;;14.25;14.25;;;;;26.55;40.30;101419.44;6248103;22;45422;-77
2022/06/18 03:56:22;;;;;;;;;12.50;11.50;;;;;26.53;39.63;101421.38;6248262;22;45201;-77
2022/06/18 03:58:48;;;;;;;;;14.75;13.00;;;;;26.49;40.32;101417.97;6248754;22;45362;-76
2022/06/18 04:01:17;;;;;;;;;11.75;11.75;;;;;26.49;40.33;101422.47;6248369;22;45250;-77
2022/06/18 04:03:43;;;;;;;;;14.25;12.75;;;;;26.46;39.89;101414.56;6248199;22;45406;-77
2022/06/18 04:06:10;;;;;;;;;11.25;11.25;;;;;26.47;39.96;101416.31;6245572;22;47484;-77
2022/06/18 04:08:36;;;;;;;;;14.75;13.75;;;;;26.48;40.41;101415.34;6246540;22;45800;-77
2022/06/18 04:11:01;;;;;;;;;12.75;12.75;;;;;26.45;39.76;101410.13;6221170;22;45291;-77
2022/06/18 04:13:29;;;;;;;;;11.75;11.00;;;;;26.47;40.27;101409.06;6248621;22;45276;-77
2022/06/18 04:15:55;;;;;;;;;10.50;9.50;;;;;26.47;39.87;101411.78;6246208;22;47055;-77
2022/06/18 04:18:21;;;;;;;;;12.75;10.75;;;;;26.47;39.62;101410.91;6220682;22;45851;-78
2022/06/18 04:20:47;;;;;;;;;11.25;10.00;;;;;26.48;39.95;101413.50;6248015;22;45177;-76
2022/06/18 04:23:15;;;;;;;;;13.25;12.00;;;;;26.47;39.82;101409.06;6248051;22;45171;-77
2022/06/18 04:25:41;;;;;;;;;12.00;12.00;;;;;26.46;39.45;101406.44;6246205;22;46904;-77
2022/06/18 04:28:07;;;;;;;;;9.25;9.25;;;;;26.47;39.47;101408.22;6245946;22;45363;-77
2022/06/18 04:30:32;;;;;;;;;12.25;10.75;;;;;26.50;39.74;101413.41;6248376;22;45362;-77
2022/06/18 04:32:58;;;;;;;;;9.75;9.00;;;;;26.48;39.55;101405.41;6248466;22;45094;-77
2022/06/18 04:35:24;;;;;;;;;12.75;11.00;;;;;26.52;39.58;101404.31;6220332;22;46839;-77
2022/06/18 04:37:50;;;;;;;;;9.00;8.25;;;;;26.54;39.43;101409.59;6248465;22;45164;-77
2022/06/18 04:40:20;;;;;;;;;11.25;10.75;;;;;26.55;39.65;101409.50;6248022;22;45466;-77
2022/06/18 04:42:45;;;;;;;;;11.25;9.50;;;;;26.59;39.92;101419.16;6220603;22;45396;-77
2022/06/18 04:45:11;;;;;;;;;14.25;13.00;;;;;26.58;39.45;101417.44;6220345;22;46089;-77
2022/06/18 04:47:37;;;;;;;;;11.50;11.50;;;;;26.61;39.61;101421.78;6248245;22;45415;-77
2022/06/18 04:50:04;;;;;;;;;11.50;11.25;;;;;26.64;39.80;101421.59;6246032;22;45201;-77
2022/06/18 04:52:29;;;;;;;;;11.50;11.50;;;;;26.67;39.43;101421.41;6247792;22;45178;-77
2022/06/18 04:54:55;;;;;;;;;11.50;9.25;;;;;26.69;39.69;101424.88;6247437;22;46217;-77
2022/06/18 04:57:21;;;;;;;;;14.50;14.00;;;;;26.73;39.75;101421.03;6248053;22;45248;-77
2022/06/18 04:59:46;;;;;;;;;11.75;10.50;;;;;26.78;39.82;101428.84;6219735;22;45160;-77
2022/06/18 05:02:23;;;;;;;;;12.25;11.25;;;;;26.81;40.15;101421.44;6220546;22;45531;-77
2022/06/18 05:04:49;;;;;;;;;13.25;13.25;;;;;26.84;40.12;101426.66;6220535;22;47810;-77
2022/06/18 05:07:14;;;;;;;;;12.50;12.50;;;;;26.87;39.91;101420.19;6220068;22;45281;-77
2022/06/18 05:09:40;;;;;;;;;14.50;13.00;;;;;26.90;40.50;101430.81;6221212;22;45331;-77
2022/06/18 05:12:06;;;;;;;;;14.75;12.25;;;;;26.94;40.12;101413.44;6248257;22;45295;-77
2022/06/18 05:14:32;;;;;;;;;13.50;12.50;;;;;26.95;40.41;101415.19;6220667;22;48218;-77
2022/06/18 05:17:00;;;;;;;;;13.75;13.25;;;;;26.98;40.40;101414.13;6248036;22;45260;-77
2022/06/18 05:19:30;;;;;;;;;14.75;13.75;;;;;27.00;40.29;101415.78;6220720;22;45245;-77
2022/06/18 05:21:55;;;;;;;;;17.25;14.50;;;;;27.04;40.41;101413.75;6220284;22;45268;-77
2022/06/18 05:24:21;;;;;;;;;13.50;13.00;;;;;27.07;40.50;101405.44;6246147;22;47412;-78
2022/06/18 05:26:49;;;;;;;;;13.25;12.75;;;;;27.11;40.56;101409.69;6248057;22;45256;-77
2022/06/18 05:29:15;;;;;;;;;12.00;10.75;;;;;27.15;40.40;101411.22;6248253;22;45164;-78
2022/06/18 05:31:41;;;;;;;;;13.50;12.25;;;;;27.17;40.58;101405.78;6248021;22;45427;-77
2022/06/18 05:34:07;;;;;;;;;15.25;14.25;;;;;27.21;40.32;101407.28;6220085;22;46101;-78
2022/06/18 05:36:32;;;;;;;;;14.00;12.25;;;;;27.24;40.31;101399.03;6247567;22;45125;-78
2022/06/18 05:38:59;;;;;;;;;11.75;10.50;;;;;27.28;40.05;101401.41;6248241;22;45334;-77
2022/06/18 05:41:25;;;;;;;;;11.50;11.50;;;;;27.33;40.08;101395.72;6247911;22;45378;-76
2022/06/18 05:43:50;;;;;;;;;9.25;9.00;;;;;27.37;39.82;101394.56;6247536;22;45359;-76
2022/06/18 05:46:16;;;;;;;;;12.00;11.50;;;;;27.42;40.06;101389.69;6247872;22;45370;-76
2022/06/18 05:48:42;;;;;;;;;12.50;12.00;;;;;27.45;39.77;101384.13;6220676;22;45441;-77
2022/06/18 05:51:08;;;;;;;;;12.25;11.25;;;;;27.49;40.10;101382.94;6247665;22;45452;-76
2022/06/18 05:53:33;;;;;;;;;11.50;10.50;;;;;27.56;39.72;101393.34;6219667;22;47162;-77
2022/06/18 05:56:00;;;;;;;;;14.25;13.25;;;;;27.61;39.68;101384.00;6220504;22;45205;-75
2022/06/18 05:58:26;;;;;;;;;15.00;14.00;;;;;27.65;39.76;101384.66;6248231;22;45176;-78
2022/06/18 06:00:51;;;;;;;;;12.00;10.50;;;;;27.68;39.87;101379.03;6248041;22;45509;-76
2022/06/18 06:03:17;;;;;;;;;15.75;14.50;;;;;27.74;39.81;101385.88;6247956;22;45296;-77
2022/06/18 06:05:42;;;;;;;;;11.75;11.50;;;;;27.77;39.89;101388.38;6247895;22;45189;-76
2022/06/18 06:08:11;;;;;;;;;14.25;12.75;;;;;27.80;39.79;101380.97;6245935;22;45718;-77
2022/06/18 06:13:22;;;;;;;;;11.00;10.25;;;;;27.93;39.40;101375.59;6248029;22;45692;-77
2022/06/18 06:15:48;;;;;;;;;9.75;9.00;;;;;28.00;38.58;101382.34;6220252;22;45218;-77
2022/06/18 06:18:16;;;;;;;;;9.75;8.75;;;;;28.06;38.20;101373.81;6220226;22;45178;-77
2022/06/18 06:20:44;;;;;;;;;11.75;11.00;;;;;28.13;37.73;101372.44;6245509;22;45440;-77
2022/06/18 06:23:11;;;;;;;;;9.00;9.00;;;;;28.20;37.42;101375.59;6247699;22;45504;-77
2022/06/18 06:25:38;;;;;;;;;10.00;9.50;;;;;28.26;37.19;101374.31;6220320;22;45832;-77
2022/06/18 06:28:04;;;;;;;;;12.50;10.50;;;;;28.30;36.83;101375.84;6219311;22;45251;-77
2022/06/18 06:30:29;;;;;;;;;12.00;9.75;;;;;28.38;36.74;101376.16;6247408;22;45334;-78
2022/06/18 06:32:55;;;;;;;;;9.75;8.75;;;;;28.44;36.46;101381.22;6245661;22;46176;-78
2022/06/18 06:35:21;;;;;;;;;10.50;8.50;;;;;28.48;36.49;101380.03;6246878;22;45286;-77
2022/06/18 06:37:46;;;;;;;;;11.00;11.00;;;;;28.54;36.13;101384.16;6247510;22;45185;-78
2022/06/18 06:40:15;;;;;;;;;10.25;9.75;;;;;28.57;36.24;101384.81;6247143;22;45210;-77
2022/06/18 06:42:46;;;;;;;;;13.50;12.50;;;;;28.62;37.22;101383.63;6247031;22;45381;-77
2022/06/18 06:45:21;;;;;;;;;19.00;15.50;;;;;28.64;37.78;101384.38;6219404;22;45513;-77
2022/06/18 06:47:47;;;;;;;;;16.75;14.00;;;;;28.64;38.28;101390.66;6220149;22;45259;-77
2022/06/18 06:50:16;;;;;;;;;16.50;15.75;;;;;28.66;38.39;101385.16;6247233;22;45162;-77
2022/06/18 06:52:43;;;;;;;;;14.00;14.00;;;;;28.69;38.48;101393.06;6257562;22;46076;-77
2022/06/18 06:58:07;;;;;;;;;19.00;16.00;;;;;28.70;38.81;101386.66;6277829;22;45216;-77
2022/06/18 07:00:35;;;;;;;;;17.50;14.00;;;;;28.67;38.59;101389.59;6277531;22;45130;-77
2022/06/18 07:03:00;;;;;;;;;22.00;22.00;;;;;28.65;38.21;101389.69;6277890;22;46472;-77
2022/06/18 07:05:25;;;;;;;;;18.25;17.00;;;;;28.66;38.22;101391.44;6277273;22;45359;-77
2022/06/18 07:07:51;;;;;;;;;18.50;16.75;;;;;28.66;38.26;101388.72;6275312;22;45331;-77
2022/06/18 07:10:16;;;;;;;;;16.75;16.50;;;;;28.69;38.19;101385.78;6277851;22;45195;-78
2022/06/18 07:12:42;;;;;;;;;16.00;16.00;;;;;28.73;38.68;101386.44;6277559;22;45342;-77
2022/06/18 07:15:08;;;;;;;;;14.25;13.25;;;;;28.77;38.49;101375.28;6250084;22;45217;-77
2022/06/18 07:17:34;;;;;;;;;15.75;14.00;;;;;28.84;38.10;101372.13;6274966;22;45147;-77
2022/06/18 07:19:59;;;;;;;;;17.75;16.50;;;;;28.92;37.89;101376.06;6274815;22;45810;-78
2022/06/18 07:22:26;;;;;;;;;16.25;15.25;;;;;29.01;37.67;101374.53;6248948;22;47064;-77
2022/06/18 07:24:51;;;;;;;;;12.50;12.50;;;;;29.10;37.56;101382.03;6278489;22;45271;-77
2022/06/18 07:27:17;;;;;;;;;14.25;14.25;;;;;29.19;37.93;101380.47;6278963;22;45089;-77
2022/06/18 07:29:42;;;;;;;;;10.50;10.50;;;;;29.27;35.78;101386.25;6278733;22;45366;-77
2022/06/18 07:32:14;;;;;;;;;11.00;11.00;;;;;29.34;35.76;101373.97;6278403;22;45378;-77
2022/06/18 07:34:39;;;;;;;;;11.50;10.50;;;;;29.42;35.42;101379.69;6278147;22;45120;-77
2022/06/18 07:37:05;;;;;;;;;10.25;10.25;;;;;29.54;34.95;101374.34;6250715;22;45273;-77
2022/06/18 07:39:30;;;;;;;;;10.75;10.75;;;;;29.63;34.68;101370.97;6276706;22;45189;-77
2022/06/18 07:41:56;;;;;;;;;10.75;10.75;;;;;29.74;34.33;101372.91;6277908;22;45512;-77
2022/06/18 07:44:23;;;;;;;;;12.00;12.00;;;;;29.81;34.07;101366.91;6251341;22;45745;-77
2022/06/18 07:46:49;;;;;;;;;10.75;10.50;;;;;29.91;34.16;101369.78;6251243;22;45194;-77
2022/06/18 07:49:16;;;;;;;;;11.00;11.00;;;;;30.00;34.03;101366.38;6278593;22;45345;-78
2022/06/18 07:51:41;;;;;;;;;10.00;10.00;;;;;30.09;33.32;101360.22;6278021;22;45355;-77
2022/06/18 07:54:08;;;;;;;;;10.25;10.25;;;;;30.17;33.23;101356.06;6245308;22;45373;-77
2022/06/18 07:56:34;;;;;;;;;13.00;12.75;;;;;30.24;32.80;101360.97;6271212;22;45157;-77
2022/06/18 07:58:59;;;;;;;;;10.00;10.00;;;;;30.32;32.57;101349.50;6245436;22;45410;-77
2022/06/18 08:01:25;;;;;;;;;14.00;12.75;;;;;30.41;32.82;101345.19;6243693;22;46511;-77
2022/06/18 08:03:51;;;;;;;;;11.75;10.50;;;;;30.50;32.31;101348.06;6247403;22;45219;-77
2022/06/18 08:06:17;;;;;;;;;11.00;10.00;;;;;30.60;32.10;101350.91;6247083;22;45145;-77
2022/06/18 08:08:42;;;;;;;;;11.00;11.00;;;;;30.66;31.83;101342.28;6245430;22;45470;-77
2022/06/18 08:11:12;;;;;;;;;12.00;12.00;;;;;30.77;31.89;101339.59;6270687;22;46147;-77
2022/06/18 08:13:37;;;;;;;;;8.25;8.25;;;;;30.87;31.92;101337.00;6246943;22;45322;-77
2022/06/18 08:16:04;;;;;;;;;9.75;9.50;;;;;30.94;31.38;101335.53;6245016;22;45255;-77
2022/06/18 08:18:30;;;;;;;;;11.25;10.00;;;;;31.02;30.93;101334.06;6246788;22;45187;-77
2022/06/18 08:21:00;;;;;;;;;10.25;10.25;;;;;31.08;30.81;101320.81;6246650;22;45163;-77
2022/06/18 08:23:25;;;;;;;;;8.75;8.75;;;;;31.16;31.01;101328.34;6244991;22;45408;-77
2022/06/18 08:25:51;;;;;;;;;8.25;8.25;;;;;31.24;30.26;101331.31;6244986;22;45364;-78
2022/06/18 08:28:16;;;;;;;;;12.25;11.25;;;;;31.33;30.71;101324.25;6247269;22;45306;-77
2022/06/18 08:30:42;;;;;;;;;10.50;9.75;;;;;31.43;30.48;101327.97;6245165;22;46713;-77
2022/06/18 08:33:08;;;;;;;;;10.00;10.00;;;;;31.50;30.32;101320.19;6269549;22;45358;-77
2022/06/18 08:35:37;;;;;;;;;10.50;10.25;;;;;31.58;30.38;101321.25;6247059;22;45167;-78
2022/06/18 08:38:05;;;;;;;;;12.75;11.75;;;;;31.64;29.81;101323.47;6245124;22;45327;-76
2022/06/18 08:40:45;;;;;;;;;8.50;8.50;;;;;31.74;30.09;101314.53;6245208;22;45577;-77
2022/06/18 08:43:41;;;;;;;;;10.75;10.75;;;;;31.79;30.11;101315.03;6245185;22;45246;-77
2022/06/18 08:46:41;;;;;;;;;10.50;10.50;;;;;31.87;30.00;101301.63;6247922;22;45097;-79
2022/06/18 08:49:32;;;;;;;;;11.75;10.00;;;;;31.95;29.97;101301.00;6245171;22;45401;-77
2022/06/18 08:52:15;;;;;;;;;12.25;11.25;;;;;32.01;29.72;101290.44;6246833;22;47015;-77
2022/06/18 08:55:06;;;;;;;;;9.25;9.25;;;;;32.07;29.36;101289.88;6250346;22;45122;-77
2022/06/18 08:57:45;;;;;;;;;13.25;11.75;;;;;32.16;29.26;101287.38;6250566;22;45236;-76
2022/06/18 09:00:41;;;;;;;;;9.50;9.50;;;;;32.24;28.73;101285.72;6250631;22;45301;-76
2022/06/18 09:03:27;;;;;;;;;10.75;10.75;;;;;32.32;28.97;101293.25;6278273;22;45505;-77
2022/06/18 09:06:11;;;;;;;;;12.00;12.00;;;;;32.42;29.04;101280.50;6277470;22;45351;-77
2022/06/18 09:09:03;;;;;;;;;12.25;12.00;;;;;32.55;28.59;101274.88;6250060;22;45166;-77
2022/06/18 09:11:45;;;;;;;;;11.00;11.00;;;;;32.67;28.51;101279.25;6250131;22;45555;-76
2022/06/18 09:14:17;;;;;;;;;13.50;13.25;;;;;32.78;28.13;101272.00;6277577;22;46346;-77
2022/06/18 09:17:22;;;;;;;;;11.50;11.50;;;;;32.90;27.96;101268.13;6278261;22;45163;-77
2022/06/18 09:19:56;;;;;;;;;12.25;12.25;;;;;32.98;27.94;101257.41;6277907;22;45154;-77
2022/06/18 09:22:21;;;;;;;;;14.00;11.50;;;;;33.09;27.85;101267.38;6274467;22;45192;-76
2022/06/18 09:24:51;;;;;;;;;12.50;11.75;;;;;33.19;27.45;101265.53;6249941;22;46027;-77
2022/06/18 09:27:24;;;;;;;;;10.00;9.50;;;;;33.25;26.97;101256.78;6277739;22;45288;-77
2022/06/18 09:30:08;;;;;;;;;11.25;10.00;;;;;33.35;27.12;101254.94;6278452;22;45331;-76
2022/06/18 09:32:54;;;;;;;;;9.75;9.75;;;;;33.47;27.14;101252.06;6249958;22;45264;-77
2022/06/18 09:35:22;;;;;;;;;11.00;11.00;;;;;33.60;26.92;101244.47;6249494;22;47196;-76
2022/06/18 09:37:57;;;;;;;;;11.50;11.50;;;;;33.65;26.16;101247.66;6275540;22;45615;-77
2022/06/18 09:40:38;;;;;;;;;11.50;11.25;;;;;33.71;26.61;101235.28;6249722;22;45399;-77
2022/06/18 09:43:18;;;;;;;;;12.00;12.00;;;;;33.77;26.48;101229.25;6249433;22;45498;-77
2022/06/18 09:45:49;;;;;;;;;12.50;11.75;;;;;33.88;26.38;101226.38;6277077;22;45595;-77
2022/06/18 09:48:15;;;;;;;;;11.00;11.00;;;;;33.93;26.31;101221.34;6249369;22;45200;-77
2022/06/18 09:50:47;;;;;;;;;10.00;9.00;;;;;33.97;26.19;101211.81;6249367;22;45224;-77
2022/06/18 09:53:23;;;;;;;;;10.50;9.75;;;;;34.08;25.97;101209.97;6276966;22;45253;-78
2022/06/18 09:55:53;;;;;;;;;11.75;11.75;;;;;34.13;25.76;101200.31;6277917;22;45364;-76
2022/06/18 09:58:28;;;;;;;;;10.25;10.00;;;;;34.26;26.00;101211.78;6249615;22;45232;-77
2022/06/18 10:00:58;;;;;;;;;12.00;12.00;;;;;34.35;25.22;101206.44;6278331;22;45202;-77
2022/06/18 10:09:05;;;;;;;;;10.25;9.00;;;;;34.50;24.62;101195.88;6277271;22;45437;-77
2022/06/18 10:11:30;;;;;;;;;9.25;9.25;;;;;34.57;24.32;101202.50;6278145;22;45251;-77
2022/06/18 10:14:04;;;;;;;;;7.50;7.25;;;;;34.62;22.80;101191.97;6275155;22;45721;-77
2022/06/18 10:16:46;;;;;;;;;6.75;6.75;;;;;34.67;23.29;101190.50;6277037;22;45452;-77
2022/06/18 10:19:20;;;;;;;;;8.25;8.25;;;;;34.77;23.11;101181.38;6248463;22;45216;-77
2022/06/18 10:21:58;;;;;;;;;11.00;10.00;;;;;34.83;23.29;101176.16;6274825;22;45275;-78
2022/06/18 10:24:47;;;;;;;;;6.00;6.00;;;;;34.90;22.53;101177.25;6276871;22;45374;-77
2022/06/18 10:27:21;;;;;;;;;9.00;8.25;;;;;34.93;22.76;101167.88;6223237;22;46112;-77
2022/06/18 10:30:11;;;;;;;;;12.50;10.50;;;;;35.02;22.52;101166.06;6275180;22;46088;-77
2022/06/18 10:32:46;;;;;;;;;11.75;9.00;;;;;35.07;22.68;101163.75;6277582;22;45158;-78
2022/06/18 10:35:59;;;;;;;;;6.75;6.50;;;;;35.11;21.75;101166.03;6277355;22;45129;-78
2022/06/18 10:38:55;;;;;;;;;9.75;9.25;;;;;35.17;22.32;101159.09;6186724;22;47372;-78
2022/06/18 10:41:26;;;;;;;;;6.75;6.75;;;;;35.21;22.13;101157.78;6249464;22;45265;-77
2022/06/18 10:44:04;;;;;;;;;10.50;8.50;;;;;35.28;21.96;101152.50;6274621;22;45246;-77
2022/06/18 10:46:30;;;;;;;;;12.00;11.25;;;;;35.32;22.28;101145.72;6249030;22;45894;-77
2022/06/18 10:48:59;;;;;;;;;9.50;8.50;;;;;35.40;21.97;101148.53;6277321;22;45092;-77
2022/06/18 10:51:39;;;;;;;;;8.50;7.75;;;;;35.48;21.94;101142.25;6276947;22;45242;-77
2022/06/18 10:54:06;;;;;;;;;10.25;9.25;;;;;35.59;21.98;101146.66;6277416;22;45182;-78
2022/06/18 10:56:44;;;;;;;;;8.00;7.75;;;;;35.66;21.55;101137.66;6276986;22;45403;-78
2022/06/18 10:59:09;;;;;;;;;9.00;7.75;;;;;35.72;21.45;101139.75;6276818;22;45358;-77
2022/06/18 11:01:39;;;;;;;;;9.00;8.00;;;;;35.81;21.27;101131.56;6276618;22;45429;-77
2022/06/18 11:04:30;;;;;;;;;8.75;7.25;;;;;35.90;21.80;101128.72;6249170;22;45261;-77
2022/06/18 11:07:02;;;;;;;;;10.00;9.00;;;;;35.98;21.46;101119.66;6277061;22;45383;-77
2022/06/18 11:09:31;;;;;;;;;13.00;12.75;;;;;36.06;21.37;101128.00;6274470;22;47858;-77
2022/06/18 11:12:02;;;;;;;;;11.50;10.00;;;;;36.07;21.53;101115.16;6277104;22;45457;-77
2022/06/18 11:14:38;;;;;;;;;10.00;10.00;;;;;36.12;21.07;101105.41;6249461;22;45230;-77
2022/06/18 11:17:40;;;;;;;;;12.00;10.25;;;;;36.25;21.93;101102.22;6277414;22;45272;-77
2022/06/18 11:20:16;;;;;;;;;10.75;10.75;;;;;36.34;21.25;101101.22;6274720;22;47471;-77
2022/06/18 11:22:43;;;;;;;;;10.25;8.75;;;;;36.39;21.54;101097.97;6248860;22;45279;-77
2022/06/18 11:25:39;;;;;;;;;11.50;11.50;;;;;36.46;20.89;101087.19;6277534;22;45374;-77
2022/06/18 11:28:13;;;;;;;;;10.75;10.75;;;;;36.52;20.84;101087.41;6277396;22;45325;-77
2022/06/18 11:30:43;;;;;;;;;11.25;10.25;;;;;36.62;20.64;101079.91;6277115;22;46476;-77
2022/06/18 11:33:52;;;;;;;;;11.50;10.75;;;;;36.71;20.47;101079.94;6249251;22;45161;-76
2022/06/18 11:36:30;;;;;;;;;9.00;9.00;;;;;36.76;20.38;101067.41;6241492;22;45374;-77
2022/06/18 11:38:58;;;;;;;;;11.00;9.50;;;;;36.90;20.03;101070.53;6274888;22;45386;-77
2022/06/18 11:41:32;;;;;;;;;9.00;8.50;;;;;37.01;19.69;101067.44;6249451;22;47433;-77
2022/06/18 11:44:04;;;;;;;;;14.00;12.50;;;;;37.12;19.69;101066.28;6249524;22;45379;-77
2022/06/18 11:46:37;;;;;;;;;12.75;9.75;;;;;37.15;19.86;101061.28;6277171;22;45363;-77